Share

Antananarivo, Madagascar

10:43 PM EAT on April 23, 2014 (GMT +0300)
Ivato (FMMI) Elev 4186 ft | 18.80 °S, 47.48 °E | Change Station

Current weather conditions updated 13 minutes ago

Partly Cloudy
Partly Cloudy
64 °F
Feels Like 64 °F
N
5
Wind Variable Wind from SE
Sunrise 6:02 AM
Sunset 5:34 PM
Moon Waning Crescent

Tomorrow is forecast to be nearly the same temperature as today.

Pressure 30.24 in
Visibility 6.2 miles
Clouds Few 1700 ft
Dew Point 64 °F
Humidity 100%
Rainfall 0.00 in
Snow Depth Not available.
UV 0 out of 16
Pollen Not available.
Air Quality Not available.
Flu Activity Not available.
METAR FMMI 231930Z 14004KT 110V180 9999 VCTS FEW017CB 18/18 Q1024 NOSIG

More Conditions Fewer Conditions

Pressure 30.24 in
Visibility 6.2 miles
Clouds Few 1700 ft
Dew Point 64 °F
Humidity 100%
Rainfall 0.00 in
Snow Depth Not available.
UV 0 out of 16
Pollen Not available.
Air Quality Not available.
Flu Activity Not available.
METAR FMMI 231930Z 14004KT 110V180 9999 VCTS FEW017CB 18/18 Q1024 NOSIG

More Conditions Fewer Conditions

10-Day Weather Forecast

Almanac

Astronomy

Apr. 23, 2014 Rise Set
Actual Time 6:02 AM EAT 5:34 PM EAT
Civil Twilight 5:39 AM EAT 5:56 PM EAT
Nautical Twilight 5:14 AM EAT 6:22 PM EAT
Astronomical Twilight 4:48 AM EAT 6:48 PM EAT
Moon 12:14 AM EAT 1:13 PM EAT
Length of Visible Light 12h 17m
Length of Day
11h 32m
Tomorrow will be 0m 56s shorter.
Waning Crescent, 33% of the Moon is Illuminated
Today
Waning Crescent
Apr 29
New
May 6
First Quarter
May 14
Full
May 21
Last Quarter

Today's Extremes

Country Highs Country Lows

Community

  • Stunning Sunrise
    Stunning Sunrise
  • spring flowers
    spring flowers
  • Earth Day Spectrum Ove' Blue
    Earth Day Spectrum Ove' Blue
  • BARN B&W
    BARN B&W
  • April Sunset
    April Sunset

WunderPhotos

Upload Photos

1,704,391 photos uploaded!

WunderBlogs® & News

Nearby

Snow Depth

Not available.

Coastal Water Temperatures

Place Temperature
No Stations Reporting

Earthquake Activity

City Distance Mag. Time & Date
No recent earthquake activity has been reported nearby.
Minimum magnitude displayed is 2.5.

Nearby Weather Stations

There are no personal weather stations in this area.

What do you think?

We're not finished. Please let us know what you like, what you don't like, and what you are still missing.